Aegean Orion — SVA2487 — position and weather

sailwx.info

Track history (hours):
 
Tides and Currents Weather Stations Pressure Air Temp Water Temp Dewpoint Dewpoint Depression Visibility Wind Speed Wind Dir Waves Ship Positions

Aegean Orion

Last reported at 2017-Aug-19 07:30 UTC. Time now 2017-Aug-19 07:39 UTC.
Position N 38°02' E 023°31'.

; draft 2.4 m.

Type: Ship. MMSI: 239550200.

Date/timePositionNaut miles runAvg speedWind from/ knotsBaromVisibWave heightAir tempDewpointWater temp
2017-Aug-19 07:30N 38°02' E 023°31'0 0.0
2017-Aug-19 07:00N 38°02' E 023°31'0 0.0
2017-Aug-19 06:30N 38°02' E 023°31'0 0.0
2017-Aug-19 06:01N 38°02' E 023°31'0 0.0
2017-Aug-19 05:30N 38°02' E 023°31'0 0.0
2017-Aug-19 05:00N 38°02' E 023°31'1 1.2
2017-Aug-19 04:30N 38°02' E 023°31'0 0.0
2017-Aug-18 04:45N 38°02' E 023°32'0 1.1
2017-Aug-18 04:30N 38°02' E 023°32'4 7.3
2017-Aug-18 04:00N 37°58' E 023°33'3 6.8
2017-Aug-18 03:30N 37°57' E 023°36'2 3.2
2017-Aug-18 03:00N 37°57' E 023°38'0 0.0
2017-Aug-18 02:30N 37°57' E 023°38'0 0.5
2017-Aug-18 02:00N 37°57' E 023°38'2 3.4
2017-Aug-18 01:30N 37°57' E 023°36'2 3.3
2017-Aug-18 01:01N 37°57' E 023°34'0 0.0
2017-Aug-18 00:30N 37°57' E 023°34'0 0.0
2017-Aug-18 00:00N 37°57' E 023°34'0 0.0
2017-Aug-17 23:31N 37°57' E 023°34'0 0.0
2017-Aug-17 23:00N 37°57' E 023°34'0 0.0
2017-Aug-17 22:30N 37°57' E 023°34'0 0.0
2017-Aug-17 22:00N 37°57' E 023°34'0 0.0
2017-Aug-17 21:31N 37°57' E 023°34'0 0.0
2017-Aug-17 21:00N 37°57' E 023°34'0 0.0
2017-Aug-17 20:30N 37°57' E 023°34'0 0.0
2017-Aug-17 20:01N 37°57' E 023°34'0 0.0
2017-Aug-17 19:30N 37°57' E 023°34'0 0.0
2017-Aug-17 19:00N 37°57' E 023°34'0 0.1
2017-Aug-17 18:30N 37°57' E 023°34'3 5.4
2017-Aug-17 18:01N 37°56' E 023°37'1 1.1
2017-Aug-17 17:30N 37°56' E 023°38'0 0.0
2017-Aug-17 17:00N 37°56' E 023°38'0 0.0
2017-Aug-17 16:31N 37°56' E 023°38'1 1.4
2017-Aug-17 16:00N 37°56' E 023°37'1 2.1
2017-Aug-17 15:30N 37°57' E 023°36'1 2.8
2017-Aug-17 15:01N 37°57' E 023°34'0 0.0
2017-Aug-17 14:30N 37°57' E 023°34'0 0.0
2017-Aug-17 14:01N 37°57' E 023°34'0 0.1
2017-Aug-17 13:30N 37°57' E 023°34'0 0.0
2017-Aug-17 13:00N 37°57' E 023°34'0 0.0
2017-Aug-17 12:31N 37°57' E 023°34'0 0.0
2017-Aug-17 12:00N 37°57' E 023°34'0 0.1
2017-Aug-17 11:31N 37°57' E 023°34'0 0.0
2017-Aug-17 11:00N 37°57' E 023°34'0 0.0
2017-Aug-17 10:30N 37°57' E 023°34'0 0.0
2017-Aug-17 10:00N 37°57' E 023°34'1 2.0
2017-Aug-17 09:30N 37°57' E 023°35'2 3.5
2017-Aug-17 09:00N 37°56' E 023°37'0 0.0
2017-Aug-17 08:30N 37°56' E 023°37'0 0.0
2017-Aug-17 08:01N 37°56' E 023°37'1 1.9
2017-Aug-17 07:30N 37°57' E 023°36'3 5.7
2017-Aug-17 07:00N 37°58' E 023°33'4 7.5
2017-Aug-17 06:30N 38°01' E 023°32'1 1.7
2017-Aug-17 06:00N 38°02' E 023°32'0 0.0
2017-Aug-16 19:16N 38°02' E 023°32'0 1.5
2017-Aug-16 19:00N 38°02' E 023°32'1 1.3
2017-Aug-16 18:30N 38°02' E 023°31'0 0.0
2017-Aug-16 18:00N 38°02' E 023°31'0 0.0
2017-Aug-16 17:31N 38°02' E 023°31'0 0.0
2017-Aug-16 17:01N 38°02' E 023°31'0 0.0
2017-Aug-16 16:31N 38°02' E 023°31'0 0.0
2017-Aug-16 16:00N 38°02' E 023°31'0 0.2
2017-Aug-16 15:31N 38°02' E 023°31'3 6.3
2017-Aug-16 15:00N 37°59' E 023°33'3 6.6
2017-Aug-16 14:30N 37°57' E 023°36'2 4.7
2017-Aug-16 14:01N 37°57' E 023°38'0 0.0
2017-Aug-16 13:31N 37°57' E 023°38'0 0.0
2017-Aug-16 13:00N 37°57' E 023°38'0 0.0
2017-Aug-16 12:30N 37°57' E 023°38'1 3.0
2017-Aug-16 12:00N 37°56' E 023°37'0 0.8
2017-Aug-16 11:31N 37°57' E 023°37'2 4.0
2017-Aug-16 11:00N 37°57' E 023°34'0 0.0
2017-Aug-16 10:30N 37°57' E 023°34'0 0.0
2017-Aug-16 10:00N 37°57' E 023°34'0 0.0
2017-Aug-16 09:31N 37°57' E 023°34'0 0.0
2017-Aug-16 09:01N 37°57' E 023°34'0 0.0
2017-Aug-16 08:30N 37°57' E 023°34'0 0.0
2017-Aug-16 08:00N 37°57' E 023°34'0 0.0
2017-Aug-16 07:30N 37°57' E 023°34'0 0.0
2017-Aug-16 07:01N 37°57' E 023°34'0 0.0
2017-Aug-16 06:30N 37°57' E 023°34'0 0.0
2017-Aug-16 06:00N 37°57' E 023°34'0 0.0
2017-Aug-16 05:30N 37°57' E 023°34'0 0.0
2017-Aug-16 05:00N 37°57' E 023°34'0 0.0
2017-Aug-16 04:30N 37°57' E 023°34'0 0.0
2017-Aug-16 04:01N 37°57' E 023°34'0 0.0
2017-Aug-16 03:31N 37°57' E 023°34'0 0.0
2017-Aug-16 03:00N 37°57' E 023°34'0 0.0
2017-Aug-16 02:31N 37°57' E 023°34'0 0.0
2017-Aug-16 02:00N 37°57' E 023°34'0 0.0
2017-Aug-16 01:30N 37°57' E 023°34'0 0.0
2017-Aug-16 01:00N 37°57' E 023°34'0 0.0
2017-Aug-16 00:31N 37°57' E 023°34'0 0.0
2017-Aug-16 00:00N 37°57' E 023°34'0 0.6
2017-Aug-15 23:30N 37°57' E 023°35'3 6.2
2017-Aug-15 23:00N 37°57' E 023°38'0 0.0
2017-Aug-15 22:30N 37°57' E 023°38'0 0.0
2017-Aug-15 22:00N 37°57' E 023°38'0 0.0
2017-Aug-15 21:30N 37°57' E 023°38'0 0.0
2017-Aug-15 21:00N 37°57' E 023°38'0 0.2
2017-Aug-15 20:31N 37°57' E 023°38'2 4.2
2017-Aug-15 20:00N 37°57' E 023°36'1 2.1
2017-Aug-15 19:30N 37°57' E 023°35'0 0.0
2017-Aug-15 19:00N 37°57' E 023°35'0 0.0
2017-Aug-15 18:31N 37°57' E 023°35'1 2.9
2017-Aug-15 18:00N 37°58' E 023°33'4 7.6
2017-Aug-15 17:30N 38°02' E 023°32'1 0.1
2017-Aug-15 09:48N 38°02' E 023°32'0 1.6
2017-Aug-15 09:30N 38°02' E 023°32'4 7.3
2017-Aug-15 09:00N 37°58' E 023°33'3 6.9
2017-Aug-15 08:30N 37°57' E 023°37'1 1.3
2017-Aug-15 08:00N 37°56' E 023°37'0 0.0
2017-Aug-15 07:30N 37°56' E 023°37'2 3.5
2017-Aug-15 07:00N 37°57' E 023°35'3 6.0
2017-Aug-15 06:30N 37°59' E 023°33'3 6.3
2017-Aug-15 06:01N 38°02' E 023°32'0 0.0
2017-Aug-13 10:30N 38°02' E 023°32'1 2.0
2017-Aug-13 10:00N 38°02' E 023°31'0 0.1
2017-Aug-13 09:30N 38°02' E 023°31'0 0.0
2017-Aug-13 09:00N 38°02' E 023°31'0 0.0
2017-Aug-13 08:30N 38°02' E 023°31'0 0.0
2017-Aug-13 08:00N 38°02' E 023°31'0 0.0
2017-Aug-13 07:30N 38°02' E 023°31'0 0.0
2017-Aug-13 07:00N 38°02' E 023°31'0 0.0
2017-Aug-13 06:30N 38°02' E 023°31'0 0.0
2017-Aug-13 06:00N 38°02' E 023°31'0 0.0
2017-Aug-13 05:30N 38°02' E 023°31'0 0.0
2017-Aug-13 05:00N 38°02' E 023°31'1 1.3
2017-Aug-13 04:30N 38°02' E 023°31'0 0.1
2017-Aug-13 04:00N 38°02' E 023°31'0 0.0
2017-Aug-13 03:30N 38°02' E 023°31'0 0.0
2017-Aug-13 03:01N 38°02' E 023°31'0 0.1
2017-Aug-13 02:30N 38°02' E 023°31'0 0.1
2017-Aug-13 02:00N 38°02' E 023°31'0 0.1
2017-Aug-13 01:31N 38°02' E 023°31'0 0.0
2017-Aug-13 01:00N 38°02' E 023°31'0 0.0
2017-Aug-13 00:31N 38°02' E 023°31'0 0.1
2017-Aug-13 00:00N 38°02' E 023°31'0 0.1
2017-Aug-12 23:30N 38°02' E 023°31'0 0.0
2017-Aug-12 23:00N 38°02' E 023°31'0 0.0
2017-Aug-12 22:30N 38°02' E 023°31'0 0.0
2017-Aug-12 22:01N 38°02' E 023°31'0 0.1
2017-Aug-12 21:30N 38°02' E 023°31'0 0.1
2017-Aug-12 21:00N 38°02' E 023°31'0 0.0
2017-Aug-12 20:30N 38°02' E 023°31'0 0.0
2017-Aug-12 20:00N 38°02' E 023°31'0 0.1
2017-Aug-12 19:30N 38°02' E 023°31'0 0.0
2017-Aug-12 19:00N 38°02' E 023°31'1 1.1
2017-Aug-12 18:31N 38°01' E 023°31'4 7.8
2017-Aug-12 18:01N 37°58' E 023°33'4 8.1
2017-Aug-12 17:30N 37°56' E 023°38'0 0.1
2017-Aug-12 17:00N 37°56' E 023°38'0 0.0
2017-Aug-12 16:30N 37°56' E 023°38'0 0.0
2017-Aug-12 16:00N 37°56' E 023°38'0 0.0
2017-Aug-12 15:30N 37°56' E 023°38'1 1.9
2017-Aug-12 15:00N 37°57' E 023°37'0 0.3
2017-Aug-12 14:30N 37°57' E 023°36'0 0.6
2017-Aug-12 14:00N 37°56' E 023°37'1 2.8
2017-Aug-12 13:30N 37°57' E 023°38'0 0.0
2017-Aug-12 13:00N 37°57' E 023°38'0 0.0
2017-Aug-12 12:30N 37°57' E 023°38'0 0.1
2017-Aug-12 12:01N 37°57' E 023°38'2 3.1
2017-Aug-12 11:30N 37°57' E 023°36'3 6.2
2017-Aug-12 11:00N 37°58' E 023°33'3 6.6
2017-Aug-12 10:30N 38°01' E 023°32'1 2.6
2017-Aug-12 10:00N 38°02' E 023°32'0 0.0
2017-Aug-12 09:30N 38°02' E 023°32'0 0.0
2017-Aug-12 09:00N 38°02' E 023°32'0 0.0
2017-Aug-12 08:30N 38°02' E 023°32'0 0.0
2017-Aug-11 08:47N 38°02' E 023°32'0 1.5
2017-Aug-11 08:30N 38°02' E 023°32'2 4.8
2017-Aug-11 08:00N 38°02' E 023°35'0 0.0
2017-Aug-11 07:30N 38°02' E 023°35'0 0.0
2017-Aug-11 07:00N 38°02' E 023°35'0 0.0
2017-Aug-11 06:30N 38°02' E 023°35'0 0.0
2017-Aug-11 06:00N 38°02' E 023°35'0 0.0
2017-Aug-11 05:30N 38°02' E 023°35'0 0.0
2017-Aug-11 05:00N 38°02' E 023°35'2 5.0
2017-Aug-11 04:31N 38°02' E 023°32'0 0.0
2017-Aug-10 15:12N 38°02' E 023°32'0 1.8
2017-Aug-10 15:00N 38°02' E 023°32'4 7.5
2017-Aug-10 14:30N 37°58' E 023°33'4 7.6
2017-Aug-10 14:00N 37°56' E 023°37'1 2.6
2017-Aug-10 13:30N 37°57' E 023°38'0 0.0
2017-Aug-10 13:00N 37°57' E 023°38'0 0.0
2017-Aug-10 12:30N 37°57' E 023°38'0 0.1
2017-Aug-10 12:01N 37°57' E 023°38'1 2.8
2017-Aug-10 11:30N 37°57' E 023°37'3 6.3
2017-Aug-10 11:00N 37°58' E 023°33'3 7.0
2017-Aug-10 10:30N 38°01' E 023°32'1 2.3
2017-Aug-10 10:00N 38°02' E 023°32'0 0.0
2017-Aug-10 09:30N 38°02' E 023°32'0 0.0
2017-Aug-10 09:00N 38°02' E 023°32'0 0.0
2017-Aug-10 08:30N 38°02' E 023°32'0 0.0
2017-Aug-10 08:00N 38°02' E 023°32'0 0.0
2017-Aug-10 07:30N 38°02' E 023°32'0 0.0
2017-Aug-10 07:00N 38°02' E 023°32'0 0.0
2017-Aug-09 15:10N 38°02' E 023°32'0 1.3
2017-Aug-09 15:01N 38°02' E 023°32'3 6.6
2017-Aug-09 14:30N 37°59' E 023°33'3 6.1
2017-Aug-09 14:01N 37°57' E 023°36'2 4.0
2017-Aug-09 13:31N 37°57' E 023°38'0 0.0
2017-Aug-09 13:01N 37°57' E 023°38'0 0.0
2017-Aug-09 12:30N 37°57' E 023°38'0 0.0
2017-Aug-09 12:00N 37°57' E 023°38'0 0.0
2017-Aug-09 11:30N 37°57' E 023°38'0 0.0
2017-Aug-09 11:00N 37°57' E 023°38'0 0.0
2017-Aug-09 10:30N 37°57' E 023°38'1 1.6
2017-Aug-09 10:01N 37°56' E 023°37'3 6.1
2017-Aug-09 09:30N 37°57' E 023°34'3 6.4
2017-Aug-09 09:00N 38°00' E 023°33'2 4.5
2017-Aug-09 08:30N 38°02' E 023°35'0 0.0
2017-Aug-09 08:00N 38°02' E 023°35'0 0.1
2017-Aug-09 07:30N 38°02' E 023°35'  
Track history (hours):
 
Tides and Currents Weather Stations Pressure Air Temp Water Temp Dewpoint Dewpoint Depression Visibility Wind Speed Wind Dir Waves Ship Positions

Aegean Orion

Last reported at 2017-Aug-19 07:30 UTC. Time now 2017-Aug-19 07:39 UTC.
Position N 38°02' E 023°31'.

; draft 2.4 m.

Type: Ship. MMSI: 239550200.

Date/timePositionNaut miles runAvg speedWind from/ knotsBaromVisibWave heightAir tempDewpointWater temp
2017-Aug-19 07:30N 38°02' E 023°31'0 0.0
2017-Aug-19 07:00N 38°02' E 023°31'0 0.0
2017-Aug-19 06:30N 38°02' E 023°31'0 0.0
2017-Aug-19 06:01N 38°02' E 023°31'0 0.0
2017-Aug-19 05:30N 38°02' E 023°31'0 0.0
2017-Aug-19 05:00N 38°02' E 023°31'1 1.2
2017-Aug-19 04:30N 38°02' E 023°31'0 0.0
2017-Aug-18 04:45N 38°02' E 023°32'0 1.1
2017-Aug-18 04:30N 38°02' E 023°32'4 7.3
2017-Aug-18 04:00N 37°58' E 023°33'3 6.8
2017-Aug-18 03:30N 37°57' E 023°36'2 3.2
2017-Aug-18 03:00N 37°57' E 023°38'0 0.0
2017-Aug-18 02:30N 37°57' E 023°38'0 0.5
2017-Aug-18 02:00N 37°57' E 023°38'2 3.4
2017-Aug-18 01:30N 37°57' E 023°36'2 3.3
2017-Aug-18 01:01N 37°57' E 023°34'0 0.0
2017-Aug-18 00:30N 37°57' E 023°34'0 0.0
2017-Aug-18 00:00N 37°57' E 023°34'0 0.0
2017-Aug-17 23:31N 37°57' E 023°34'0 0.0
2017-Aug-17 23:00N 37°57' E 023°34'0 0.0
2017-Aug-17 22:30N 37°57' E 023°34'0 0.0
2017-Aug-17 22:00N 37°57' E 023°34'0 0.0
2017-Aug-17 21:31N 37°57' E 023°34'0 0.0
2017-Aug-17 21:00N 37°57' E 023°34'0 0.0
2017-Aug-17 20:30N 37°57' E 023°34'0 0.0
2017-Aug-17 20:01N 37°57' E 023°34'0 0.0
2017-Aug-17 19:30N 37°57' E 023°34'0 0.0
2017-Aug-17 19:00N 37°57' E 023°34'0 0.1
2017-Aug-17 18:30N 37°57' E 023°34'3 5.4
2017-Aug-17 18:01N 37°56' E 023°37'1 1.1
2017-Aug-17 17:30N 37°56' E 023°38'0 0.0
2017-Aug-17 17:00N 37°56' E 023°38'0 0.0
2017-Aug-17 16:31N 37°56' E 023°38'1 1.4
2017-Aug-17 16:00N 37°56' E 023°37'1 2.1
2017-Aug-17 15:30N 37°57' E 023°36'1 2.8
2017-Aug-17 15:01N 37°57' E 023°34'0 0.0
2017-Aug-17 14:30N 37°57' E 023°34'0 0.0
2017-Aug-17 14:01N 37°57' E 023°34'0 0.1
2017-Aug-17 13:30N 37°57' E 023°34'0 0.0
2017-Aug-17 13:00N 37°57' E 023°34'0 0.0
2017-Aug-17 12:31N 37°57' E 023°34'0 0.0
2017-Aug-17 12:00N 37°57' E 023°34'0 0.1
2017-Aug-17 11:31N 37°57' E 023°34'0 0.0
2017-Aug-17 11:00N 37°57' E 023°34'0 0.0
2017-Aug-17 10:30N 37°57' E 023°34'0 0.0
2017-Aug-17 10:00N 37°57' E 023°34'1 2.0
2017-Aug-17 09:30N 37°57' E 023°35'2 3.5
2017-Aug-17 09:00N 37°56' E 023°37'0 0.0
2017-Aug-17 08:30N 37°56' E 023°37'0 0.0
2017-Aug-17 08:01N 37°56' E 023°37'1 1.9
2017-Aug-17 07:30N 37°57' E 023°36'3 5.7
2017-Aug-17 07:00N 37°58' E 023°33'4 7.5
2017-Aug-17 06:30N 38°01' E 023°32'1 1.7
2017-Aug-17 06:00N 38°02' E 023°32'0 0.0
2017-Aug-16 19:16N 38°02' E 023°32'0 1.5
2017-Aug-16 19:00N 38°02' E 023°32'1 1.3
2017-Aug-16 18:30N 38°02' E 023°31'0 0.0
2017-Aug-16 18:00N 38°02' E 023°31'0 0.0
2017-Aug-16 17:31N 38°02' E 023°31'0 0.0
2017-Aug-16 17:01N 38°02' E 023°31'0 0.0
2017-Aug-16 16:31N 38°02' E 023°31'0 0.0
2017-Aug-16 16:00N 38°02' E 023°31'0 0.2
2017-Aug-16 15:31N 38°02' E 023°31'3 6.3
2017-Aug-16 15:00N 37°59' E 023°33'3 6.6
2017-Aug-16 14:30N 37°57' E 023°36'2 4.7
2017-Aug-16 14:01N 37°57' E 023°38'0 0.0
2017-Aug-16 13:31N 37°57' E 023°38'0 0.0
2017-Aug-16 13:00N 37°57' E 023°38'0 0.0
2017-Aug-16 12:30N 37°57' E 023°38'1 3.0
2017-Aug-16 12:00N 37°56' E 023°37'0 0.8
2017-Aug-16 11:31N 37°57' E 023°37'2 4.0
2017-Aug-16 11:00N 37°57' E 023°34'0 0.0
2017-Aug-16 10:30N 37°57' E 023°34'0 0.0
2017-Aug-16 10:00N 37°57' E 023°34'0 0.0
2017-Aug-16 09:31N 37°57' E 023°34'0 0.0
2017-Aug-16 09:01N 37°57' E 023°34'0 0.0
2017-Aug-16 08:30N 37°57' E 023°34'0 0.0
2017-Aug-16 08:00N 37°57' E 023°34'0 0.0
2017-Aug-16 07:30N 37°57' E 023°34'0 0.0
2017-Aug-16 07:01N 37°57' E 023°34'0 0.0
2017-Aug-16 06:30N 37°57' E 023°34'0 0.0
2017-Aug-16 06:00N 37°57' E 023°34'0 0.0
2017-Aug-16 05:30N 37°57' E 023°34'0 0.0
2017-Aug-16 05:00N 37°57' E 023°34'0 0.0
2017-Aug-16 04:30N 37°57' E 023°34'0 0.0
2017-Aug-16 04:01N 37°57' E 023°34'0 0.0
2017-Aug-16 03:31N 37°57' E 023°34'0 0.0
2017-Aug-16 03:00N 37°57' E 023°34'0 0.0
2017-Aug-16 02:31N 37°57' E 023°34'0 0.0
2017-Aug-16 02:00N 37°57' E 023°34'0 0.0
2017-Aug-16 01:30N 37°57' E 023°34'0 0.0
2017-Aug-16 01:00N 37°57' E 023°34'0 0.0
2017-Aug-16 00:31N 37°57' E 023°34'0 0.0
2017-Aug-16 00:00N 37°57' E 023°34'0 0.6
2017-Aug-15 23:30N 37°57' E 023°35'3 6.2
2017-Aug-15 23:00N 37°57' E 023°38'0 0.0
2017-Aug-15 22:30N 37°57' E 023°38'0 0.0
2017-Aug-15 22:00N 37°57' E 023°38'0 0.0
2017-Aug-15 21:30N 37°57' E 023°38'0 0.0
2017-Aug-15 21:00N 37°57' E 023°38'0 0.2
2017-Aug-15 20:31N 37°57' E 023°38'2 4.2
2017-Aug-15 20:00N 37°57' E 023°36'1 2.1
2017-Aug-15 19:30N 37°57' E 023°35'0 0.0
2017-Aug-15 19:00N 37°57' E 023°35'0 0.0
2017-Aug-15 18:31N 37°57' E 023°35'1 2.9
2017-Aug-15 18:00N 37°58' E 023°33'4 7.6
2017-Aug-15 17:30N 38°02' E 023°32'1 0.1
2017-Aug-15 09:48N 38°02' E 023°32'0 1.6
2017-Aug-15 09:30N 38°02' E 023°32'4 7.3
2017-Aug-15 09:00N 37°58' E 023°33'3 6.9
2017-Aug-15 08:30N 37°57' E 023°37'1 1.3
2017-Aug-15 08:00N 37°56' E 023°37'0 0.0
2017-Aug-15 07:30N 37°56' E 023°37'2 3.5
2017-Aug-15 07:00N 37°57' E 023°35'3 6.0
2017-Aug-15 06:30N 37°59' E 023°33'3 6.3
2017-Aug-15 06:01N 38°02' E 023°32'0 0.0
2017-Aug-13 10:30N 38°02' E 023°32'1 2.0
2017-Aug-13 10:00N 38°02' E 023°31'0 0.1
2017-Aug-13 09:30N 38°02' E 023°31'0 0.0
2017-Aug-13 09:00N 38°02' E 023°31'0 0.0
2017-Aug-13 08:30N 38°02' E 023°31'0 0.0
2017-Aug-13 08:00N 38°02' E 023°31'0 0.0
2017-Aug-13 07:30N 38°02' E 023°31'0 0.0
2017-Aug-13 07:00N 38°02' E 023°31'0 0.0
2017-Aug-13 06:30N 38°02' E 023°31'0 0.0
2017-Aug-13 06:00N 38°02' E 023°31'0 0.0
2017-Aug-13 05:30N 38°02' E 023°31'0 0.0
2017-Aug-13 05:00N 38°02' E 023°31'1 1.3
2017-Aug-13 04:30N 38°02' E 023°31'0 0.1
2017-Aug-13 04:00N 38°02' E 023°31'0 0.0
2017-Aug-13 03:30N 38°02' E 023°31'0 0.0
2017-Aug-13 03:01N 38°02' E 023°31'0 0.1
2017-Aug-13 02:30N 38°02' E 023°31'0 0.1
2017-Aug-13 02:00N 38°02' E 023°31'0 0.1
2017-Aug-13 01:31N 38°02' E 023°31'0 0.0
2017-Aug-13 01:00N 38°02' E 023°31'0 0.0
2017-Aug-13 00:31N 38°02' E 023°31'0 0.1
2017-Aug-13 00:00N 38°02' E 023°31'0 0.1
2017-Aug-12 23:30N 38°02' E 023°31'0 0.0
2017-Aug-12 23:00N 38°02' E 023°31'0 0.0
2017-Aug-12 22:30N 38°02' E 023°31'0 0.0
2017-Aug-12 22:01N 38°02' E 023°31'0 0.1
2017-Aug-12 21:30N 38°02' E 023°31'0 0.1
2017-Aug-12 21:00N 38°02' E 023°31'0 0.0
2017-Aug-12 20:30N 38°02' E 023°31'0 0.0
2017-Aug-12 20:00N 38°02' E 023°31'0 0.1
2017-Aug-12 19:30N 38°02' E 023°31'0 0.0
2017-Aug-12 19:00N 38°02' E 023°31'1 1.1
2017-Aug-12 18:31N 38°01' E 023°31'4 7.8
2017-Aug-12 18:01N 37°58' E 023°33'4 8.1
2017-Aug-12 17:30N 37°56' E 023°38'0 0.1
2017-Aug-12 17:00N 37°56' E 023°38'0 0.0
2017-Aug-12 16:30N 37°56' E 023°38'0 0.0
2017-Aug-12 16:00N 37°56' E 023°38'0 0.0
2017-Aug-12 15:30N 37°56' E 023°38'1 1.9
2017-Aug-12 15:00N 37°57' E 023°37'0 0.3
2017-Aug-12 14:30N 37°57' E 023°36'0 0.6
2017-Aug-12 14:00N 37°56' E 023°37'1 2.8
2017-Aug-12 13:30N 37°57' E 023°38'0 0.0
2017-Aug-12 13:00N 37°57' E 023°38'0 0.0
2017-Aug-12 12:30N 37°57' E 023°38'0 0.1
2017-Aug-12 12:01N 37°57' E 023°38'2 3.1
2017-Aug-12 11:30N 37°57' E 023°36'3 6.2
2017-Aug-12 11:00N 37°58' E 023°33'3 6.6
2017-Aug-12 10:30N 38°01' E 023°32'1 2.6
2017-Aug-12 10:00N 38°02' E 023°32'0 0.0
2017-Aug-12 09:30N 38°02' E 023°32'0 0.0
2017-Aug-12 09:00N 38°02' E 023°32'0 0.0
2017-Aug-12 08:30N 38°02' E 023°32'0 0.0
2017-Aug-11 08:47N 38°02' E 023°32'0 1.5
2017-Aug-11 08:30N 38°02' E 023°32'2 4.8
2017-Aug-11 08:00N 38°02' E 023°35'0 0.0
2017-Aug-11 07:30N 38°02' E 023°35'0 0.0
2017-Aug-11 07:00N 38°02' E 023°35'0 0.0
2017-Aug-11 06:30N 38°02' E 023°35'0 0.0
2017-Aug-11 06:00N 38°02' E 023°35'0 0.0
2017-Aug-11 05:30N 38°02' E 023°35'0 0.0
2017-Aug-11 05:00N 38°02' E 023°35'2 5.0
2017-Aug-11 04:31N 38°02' E 023°32'0 0.0
2017-Aug-10 15:12N 38°02' E 023°32'0 1.8
2017-Aug-10 15:00N 38°02' E 023°32'4 7.5
2017-Aug-10 14:30N 37°58' E 023°33'4 7.6
2017-Aug-10 14:00N 37°56' E 023°37'1 2.6
2017-Aug-10 13:30N 37°57' E 023°38'0 0.0
2017-Aug-10 13:00N 37°57' E 023°38'0 0.0
2017-Aug-10 12:30N 37°57' E 023°38'0 0.1
2017-Aug-10 12:01N 37°57' E 023°38'1 2.8
2017-Aug-10 11:30N 37°57' E 023°37'3 6.3
2017-Aug-10 11:00N 37°58' E 023°33'3 7.0
2017-Aug-10 10:30N 38°01' E 023°32'1 2.3
2017-Aug-10 10:00N 38°02' E 023°32'0 0.0
2017-Aug-10 09:30N 38°02' E 023°32'0 0.0
2017-Aug-10 09:00N 38°02' E 023°32'0 0.0
2017-Aug-10 08:30N 38°02' E 023°32'0 0.0
2017-Aug-10 08:00N 38°02' E 023°32'0 0.0
2017-Aug-10 07:30N 38°02' E 023°32'0 0.0
2017-Aug-10 07:00N 38°02' E 023°32'0 0.0
2017-Aug-09 15:10N 38°02' E 023°32'0 1.3
2017-Aug-09 15:01N 38°02' E 023°32'3 6.6
2017-Aug-09 14:30N 37°59' E 023°33'3 6.1
2017-Aug-09 14:01N 37°57' E 023°36'2 4.0
2017-Aug-09 13:31N 37°57' E 023°38'0 0.0
2017-Aug-09 13:01N 37°57' E 023°38'0 0.0
2017-Aug-09 12:30N 37°57' E 023°38'0 0.0
2017-Aug-09 12:00N 37°57' E 023°38'0 0.0
2017-Aug-09 11:30N 37°57' E 023°38'0 0.0
2017-Aug-09 11:00N 37°57' E 023°38'0 0.0
2017-Aug-09 10:30N 37°57' E 023°38'1 1.6
2017-Aug-09 10:01N 37°56' E 023°37'3 6.1
2017-Aug-09 09:30N 37°57' E 023°34'3 6.4
2017-Aug-09 09:00N 38°00' E 023°33'2 4.5
2017-Aug-09 08:30N 38°02' E 023°35'0 0.0
2017-Aug-09 08:00N 38°02' E 023°35'0 0.1
2017-Aug-09 07:30N 38°02' E 023°35'  

Dump ship's entire track history